createdAt,value
2022-11-10T00:01:09.213Z,19.92
2022-11-10T00:03:37.649Z,20.50
2022-11-10T00:06:05.968Z,19.60
2022-11-10T00:08:33.160Z,20.10
2022-11-10T00:11:06.468Z,22.45
2022-11-10T00:13:35.749Z,19.50
2022-11-10T00:16:24.090Z,19.20
2022-11-10T00:18:51.336Z,20.95
2022-11-10T00:21:18.612Z,21.20
2022-11-10T00:23:47.712Z,20.27
2022-11-10T00:26:19.743Z,19.98
2022-11-10T00:28:47.182Z,20.55
2022-11-10T00:31:14.109Z,19.92
2022-11-10T00:33:43.721Z,20.77
2022-11-10T00:36:11.050Z,20.15
2022-11-10T00:38:41.007Z,21.15
2022-11-10T00:41:08.057Z,20.30
2022-11-10T00:43:35.602Z,20.15
2022-11-10T00:46:02.548Z,20.42
2022-11-10T00:48:29.423Z,20.80
2022-11-10T00:50:56.574Z,20.98
2022-11-10T00:53:23.774Z,19.95
2022-11-10T00:55:50.933Z,19.60
2022-11-10T00:58:18.186Z,19.95
2022-11-10T01:00:45.287Z,20.60
2022-11-10T01:03:17.675Z,20.38
2022-11-10T01:05:44.981Z,20.15
2022-11-10T01:08:11.913Z,19.33
2022-11-10T01:10:38.817Z,21.15
2022-11-10T01:13:06.311Z,19.20
2022-11-10T01:15:33.136Z,18.98
2022-11-10T01:18:00.080Z,21.15
2022-11-10T01:20:27.288Z,19.95
2022-11-10T01:22:54.207Z,18.00
2022-11-10T01:25:21.343Z,19.20
2022-11-10T01:27:48.286Z,18.77
2022-11-10T01:30:15.490Z,20.17
2022-11-10T01:32:42.955Z,19.40
2022-11-10T01:35:10.576Z,19.00
2022-11-10T01:37:38.306Z,18.63
2022-11-10T01:40:06.811Z,18.33
2022-11-10T01:42:54.662Z,21.00
2022-11-10T01:45:24.756Z,19.08
2022-11-10T01:47:54.845Z,20.48
2022-11-10T01:50:24.500Z,20.52
2022-11-10T01:52:55.045Z,20.23
2022-11-10T01:55:23.198Z,22.42
2022-11-10T01:57:51.081Z,19.85
2022-11-10T02:00:19.006Z,21.80
2022-11-10T02:03:36.716Z,20.27
2022-11-10T02:06:04.598Z,20.40
2022-11-10T02:08:31.685Z,20.05
2022-11-10T02:10:58.861Z,21.02
2022-11-10T02:13:26.078Z,20.30
2022-11-10T02:15:53.059Z,20.60
2022-11-10T02:18:20.791Z,20.80
2022-11-10T02:20:47.838Z,20.88
2022-11-10T02:23:35.900Z,19.02
2022-11-10T02:26:05.484Z,22.48
2022-11-10T02:28:37.795Z,19.52
2022-11-10T02:31:05.950Z,20.70
2022-11-10T02:33:32.802Z,23.23
2022-11-10T02:35:59.652Z,21.60
2022-11-10T02:38:26.869Z,19.67
2022-11-10T02:40:53.829Z,21.33
2022-11-10T02:43:20.943Z,23.00
2022-11-10T02:45:48.343Z,20.83
2022-11-10T02:48:15.846Z,20.95
2022-11-10T02:50:43.711Z,22.23
2022-11-10T02:53:11.052Z,21.48
2022-11-10T02:55:38.387Z,23.05
2022-11-10T02:58:06.002Z,20.55
2022-11-10T03:00:32.950Z,20.90
2022-11-10T03:03:03.818Z,23.10
2022-11-10T03:05:31.724Z,21.33
2022-11-10T03:08:01.573Z,20.50
2022-11-10T03:10:29.929Z,22.33
2022-11-10T03:12:59.210Z,21.00
2022-11-10T03:15:26.937Z,21.45
2022-11-10T03:17:54.254Z,21.55
2022-11-10T03:20:21.542Z,23.20
2022-11-10T03:22:48.522Z,20.00
2022-11-10T03:25:15.850Z,23.02
2022-11-10T03:27:42.989Z,21.23
2022-11-10T03:30:10.467Z,22.65
2022-11-10T03:32:37.341Z,21.02
2022-11-10T03:35:04.768Z,22.40
2022-11-10T03:37:31.615Z,19.98
2022-11-10T03:39:58.521Z,20.88
2022-11-10T03:42:25.689Z,21.48
2022-11-10T03:44:52.550Z,21.20
2022-11-10T03:47:19.717Z,22.80
2022-11-10T03:49:46.871Z,19.38
2022-11-10T03:52:13.689Z,21.65
2022-11-10T03:54:40.613Z,20.63
2022-11-10T03:57:07.805Z,20.92
2022-11-10T03:59:34.630Z,20.20
2022-11-10T04:02:01.587Z,20.70
2022-11-10T04:04:47.421Z,19.27
2022-11-10T04:07:32.853Z,22.02
2022-11-10T04:10:00.042Z,19.15
2022-11-10T04:12:45.785Z,21.17
2022-11-10T04:15:31.936Z,20.75
2022-11-10T04:18:19.064Z,19.92
2022-11-10T04:20:47.021Z,19.77
2022-11-10T04:23:26.812Z,21.17
2022-11-10T04:26:27.018Z,20.08
2022-11-10T04:28:55.927Z,19.42
2022-11-10T04:31:24.985Z,19.50
2022-11-10T04:33:52.818Z,19.85
2022-11-10T04:36:22.989Z,19.92
2022-11-10T04:38:50.156Z,19.75
2022-11-10T04:41:17.997Z,20.17
2022-11-10T04:43:45.110Z,19.27
2022-11-10T04:46:32.701Z,19.65
2022-11-10T04:49:00.453Z,18.95
2022-11-10T04:51:30.026Z,18.55
2022-11-10T04:53:57.567Z,17.38
2022-11-10T04:56:26.013Z,19.02
2022-11-10T04:58:55.327Z,18.58
2022-11-10T05:01:25.170Z,17.38
2022-11-10T05:03:53.183Z,17.38
2022-11-10T05:06:20.886Z,18.75
2022-11-10T05:08:47.897Z,18.85
2022-11-10T05:11:15.192Z,17.25
2022-11-10T05:13:43.598Z,19.38
2022-11-10T05:16:11.439Z,20.08
2022-11-10T05:18:38.683Z,19.10
2022-11-10T05:21:06.162Z,17.30
2022-11-10T05:23:39.455Z,17.48
2022-11-10T05:26:17.720Z,19.45
2022-11-10T05:28:45.847Z,18.38
2022-11-10T05:31:13.614Z,20.00
2022-11-10T05:33:41.637Z,16.77
2022-11-10T05:36:10.058Z,18.33
2022-11-10T05:38:42.971Z,18.25
2022-11-10T05:41:10.818Z,17.92
2022-11-10T05:43:38.373Z,17.50
2022-11-10T05:46:05.353Z,19.58
2022-11-10T05:48:32.205Z,17.23
2022-11-10T05:50:59.352Z,15.77
2022-11-10T05:53:26.829Z,17.60
2022-11-10T05:55:53.718Z,18.27
2022-11-10T05:58:20.987Z,17.25
2022-11-10T06:00:47.952Z,17.40
2022-11-10T06:03:19.856Z,18.17
2022-11-10T06:05:47.492Z,16.92
2022-11-10T06:08:14.644Z,16.50
2022-11-10T06:10:41.669Z,15.70
2022-11-10T06:13:10.627Z,17.17
2022-11-10T06:15:37.545Z,17.17
2022-11-10T06:18:04.592Z,16.92
2022-11-10T06:20:32.162Z,17.33
2022-11-10T06:23:00.096Z,16.73
2022-11-10T06:25:29.056Z,17.20
2022-11-10T06:27:56.373Z,17.77
2022-11-10T06:30:23.720Z,17.33
2022-11-10T06:32:50.905Z,17.05
2022-11-10T06:35:18.068Z,15.45
2022-11-10T06:37:45.547Z,16.67
2022-11-10T06:40:16.457Z,17.10
2022-11-10T06:42:43.959Z,16.83
2022-11-10T06:45:10.928Z,17.38
2022-11-10T06:47:38.219Z,17.25
2022-11-10T06:50:05.522Z,16.95
2022-11-10T06:52:32.796Z,16.38
2022-11-10T06:54:59.755Z,15.57
2022-11-10T06:57:27.275Z,15.90
2022-11-10T06:59:54.486Z,15.02
2022-11-10T07:02:21.896Z,15.65
2022-11-10T07:04:50.763Z,16.75
2022-11-10T07:07:18.031Z,14.70
2022-11-10T07:09:44.944Z,14.50
2022-11-10T07:12:12.292Z,16.25
2022-11-10T07:14:39.172Z,17.33
2022-11-10T07:17:06.117Z,17.23
2022-11-10T07:19:33.336Z,16.27
2022-11-10T07:22:00.497Z,16.58
2022-11-10T07:24:30.392Z,17.17
2022-11-10T07:26:58.035Z,15.27
2022-11-10T07:29:26.485Z,14.32
2022-11-10T07:31:53.698Z,15.25
2022-11-10T07:34:21.354Z,15.38
2022-11-10T07:36:48.611Z,14.50
2022-11-10T07:39:15.932Z,15.77
2022-11-10T07:41:42.860Z,15.13
2022-11-10T07:44:10.125Z,14.52
2022-11-10T07:46:36.961Z,15.15
2022-11-10T07:49:04.139Z,13.63
2022-11-10T07:51:31.371Z,13.63
2022-11-10T07:53:58.652Z,13.23
2022-11-10T07:56:26.617Z,12.73
2022-11-10T07:58:53.766Z,12.98
2022-11-10T08:01:20.740Z,12.10
2022-11-10T08:03:47.889Z,13.13
2022-11-10T08:06:14.822Z,11.48
2022-11-10T08:08:42.139Z,13.10
2022-11-10T08:11:09.037Z,12.20
2022-11-10T08:13:36.604Z,11.98
2022-11-10T08:16:03.688Z,12.27
2022-11-10T08:18:35.074Z,12.90
2022-11-10T08:21:04.021Z,11.82
2022-11-10T08:23:31.424Z,12.70
2022-11-10T08:25:59.715Z,12.88
2022-11-10T08:28:27.468Z,10.20
2022-11-10T08:30:54.519Z,12.10
2022-11-10T08:33:22.897Z,10.80
2022-11-10T08:35:51.796Z,10.10
2022-11-10T08:38:21.765Z,10.45
2022-11-10T08:40:49.034Z,10.43
2022-11-10T08:43:17.817Z,11.65
2022-11-10T08:45:45.553Z,9.48
2022-11-10T08:48:18.335Z,10.60
2022-11-10T08:50:46.220Z,9.40
2022-11-10T08:53:15.425Z,9.43
2022-11-10T08:55:43.398Z,9.60
2022-11-10T08:58:19.552Z,8.70
2022-11-10T09:00:46.492Z,8.43
2022-11-10T09:03:16.066Z,8.85
2022-11-10T09:05:43.679Z,8.50
2022-11-10T09:08:11.658Z,8.75
2022-11-10T09:10:44.509Z,8.13
2022-11-10T09:15:40.053Z,9.07
2022-11-10T09:18:07.915Z,7.85
2022-11-10T09:20:37.587Z,7.97
2022-11-10T09:23:06.448Z,8.55
2022-11-10T09:25:33.413Z,7.72
2022-11-10T09:28:00.705Z,7.32
2022-11-10T09:30:28.461Z,7.22
2022-11-10T09:32:58.043Z,7.55
2022-11-10T09:35:25.825Z,8.00
2022-11-10T09:37:53.128Z,7.22
2022-11-10T09:40:29.838Z,7.20
2022-11-10T09:43:01.136Z,7.40
2022-11-10T09:45:39.731Z,8.50
2022-11-10T09:48:25.775Z,7.07
2022-11-10T09:51:04.155Z,6.93
2022-11-10T09:53:37.303Z,6.63
2022-11-10T09:56:06.139Z,7.82
2022-11-10T09:58:52.102Z,6.78
2022-11-10T10:01:35.532Z,6.97
2022-11-10T10:04:27.119Z,7.85
2022-11-10T10:07:11.028Z,7.13
2022-11-10T10:09:54.812Z,6.65
2022-11-10T10:12:39.724Z,7.10
2022-11-10T10:15:12.829Z,6.22
2022-11-10T10:17:54.993Z,6.45
2022-11-10T10:20:43.168Z,6.03
2022-11-10T10:23:46.927Z,5.75
2022-11-10T10:26:18.676Z,6.32
2022-11-10T10:28:47.638Z,6.05
2022-11-10T10:31:19.862Z,6.60
2022-11-10T10:33:48.476Z,6.63
2022-11-10T10:36:26.468Z,5.88
2022-11-10T10:39:06.318Z,5.32
2022-11-10T10:41:36.258Z,6.00
2022-11-10T10:44:13.854Z,5.95
2022-11-10T10:46:56.429Z,6.82
2022-11-10T10:49:29.723Z,6.70
2022-11-10T10:52:15.180Z,5.20
2022-11-10T10:54:42.121Z,5.80
2022-11-10T10:57:27.514Z,5.22
2022-11-10T11:00:23.481Z,6.45
2022-11-10T11:03:36.977Z,5.57
2022-11-10T11:06:27.058Z,5.67
2022-11-10T11:09:01.609Z,6.47
2022-11-10T11:11:37.145Z,6.50
2022-11-10T11:14:19.640Z,6.00
2022-11-10T11:16:49.521Z,6.57
2022-11-10T11:19:18.444Z,5.72
2022-11-10T11:21:56.722Z,6.20
2022-11-10T11:24:51.180Z,6.30
2022-11-10T11:27:20.663Z,6.15
2022-11-10T11:30:09.021Z,5.60
2022-11-10T11:32:50.932Z,6.78
2022-11-10T11:35:31.782Z,6.03
2022-11-10T11:38:13.277Z,6.65
2022-11-10T11:40:47.492Z,6.55
2022-11-10T11:43:48.865Z,6.38
2022-11-10T11:46:34.817Z,5.93
2022-11-10T11:49:27.377Z,6.47
2022-11-10T11:52:12.666Z,6.60
2022-11-10T11:54:51.333Z,5.88
2022-11-10T11:57:44.129Z,9.18
2022-11-10T12:00:16.447Z,6.40
2022-11-10T12:03:09.771Z,6.10
2022-11-10T12:05:58.287Z,6.55
2022-11-10T12:08:39.516Z,4.93
2022-11-10T12:11:20.202Z,5.03
2022-11-10T12:14:00.990Z,4.80
2022-11-10T12:16:33.585Z,4.50
2022-11-10T12:19:16.311Z,4.70
2022-11-10T12:21:54.449Z,5.07
2022-11-10T12:24:52.508Z,8.07
2022-11-10T12:27:35.578Z,4.97
2022-11-10T12:33:05.311Z,4.35
2022-11-10T12:35:41.400Z,3.63
2022-11-10T12:38:13.526Z,3.47
2022-11-10T12:40:47.201Z,11.65
2022-11-10T12:43:33.774Z,5.55
2022-11-10T12:46:06.374Z,11.30
2022-11-10T12:49:05.983Z,4.40
2022-11-10T12:51:54.048Z,4.32
2022-11-10T12:54:23.713Z,4.00
2022-11-10T12:56:55.793Z,4.15
2022-11-10T12:59:25.994Z,4.47
2022-11-10T13:02:03.248Z,3.88
2022-11-10T13:04:30.905Z,4.00
2022-11-10T13:07:07.681Z,4.90
2022-11-10T13:09:42.593Z,4.70
2022-11-10T13:12:24.394Z,5.00
2022-11-10T13:14:51.274Z,4.85
2022-11-10T13:17:27.998Z,5.38
2022-11-10T13:19:58.993Z,4.40
2022-11-10T13:22:37.075Z,4.70
2022-11-10T13:25:37.972Z,4.65
2022-11-10T13:28:07.995Z,3.22
2022-11-10T13:30:43.725Z,3.88
2022-11-10T13:33:23.262Z,3.08
2022-11-10T13:35:55.433Z,4.63
2022-11-10T13:38:32.268Z,3.30
2022-11-10T13:41:17.590Z,5.85
2022-11-10T13:43:53.205Z,2.25
2022-11-10T13:46:31.129Z,2.08
2022-11-10T13:49:15.521Z,2.10
2022-11-10T13:51:45.465Z,2.00
2022-11-10T13:54:33.070Z,2.63
2022-11-10T13:57:05.611Z,2.70
2022-11-10T13:59:44.443Z,2.83
2022-11-10T14:02:33.748Z,2.40
2022-11-10T14:05:02.627Z,2.72
2022-11-10T14:07:36.637Z,2.63
2022-11-10T14:10:10.966Z,2.50
2022-11-10T14:12:41.922Z,3.92
2022-11-10T14:15:19.905Z,4.00
2022-11-10T14:17:51.460Z,3.92
2022-11-10T14:20:27.374Z,3.08
2022-11-10T14:22:55.204Z,6.40
2022-11-10T14:25:36.069Z,4.90
2022-11-10T14:28:17.267Z,4.85
2022-11-10T14:30:51.796Z,6.30
2022-11-10T14:33:18.841Z,10.85
2022-11-10T14:35:56.145Z,10.30
2022-11-10T14:38:29.319Z,12.68
2022-11-10T14:41:00.489Z,14.68
2022-11-10T14:43:36.433Z,11.10
2022-11-10T14:46:06.642Z,18.92
2022-11-10T14:48:39.192Z,20.20
2022-11-10T14:51:15.780Z,15.80
2022-11-10T14:53:51.147Z,14.85
2022-11-10T14:56:31.988Z,7.18
2022-11-10T14:59:02.576Z,11.75
2022-11-10T15:01:33.832Z,10.20
2022-11-10T15:04:06.590Z,7.43
2022-11-10T15:09:14.228Z,6.38
2022-11-10T15:11:49.328Z,4.90
2022-11-10T15:14:35.461Z,4.97
2022-11-10T15:17:08.240Z,4.55
2022-11-10T15:19:53.462Z,4.73
2022-11-10T15:22:33.952Z,5.10
2022-11-10T15:25:07.579Z,5.45
2022-11-10T15:27:36.381Z,10.02
2022-11-10T15:30:19.894Z,7.00
2022-11-10T15:32:49.229Z,8.00
2022-11-10T15:35:28.588Z,7.93
2022-11-10T15:38:21.091Z,7.88
2022-11-10T15:40:51.551Z,6.60
2022-11-10T15:43:27.809Z,6.00
2022-11-10T15:46:03.405Z,9.80
2022-11-10T15:48:41.203Z,35.22
2022-11-10T15:51:13.583Z,30.42
2022-11-10T15:53:46.552Z,21.20
2022-11-10T15:56:18.853Z,9.10
2022-11-10T15:58:51.778Z,9.48
2022-11-10T16:01:18.927Z,7.88
2022-11-10T16:03:46.478Z,7.55
2022-11-10T16:06:15.051Z,8.15
2022-11-10T16:08:42.184Z,7.85
2022-11-10T16:11:22.625Z,6.85
2022-11-10T16:13:51.840Z,10.30
2022-11-10T16:16:20.429Z,8.70
2022-11-10T16:18:47.358Z,8.27
2022-11-10T16:21:16.203Z,8.70
2022-11-10T16:23:43.901Z,7.47
2022-11-10T16:26:15.091Z,7.55
2022-11-10T16:28:47.608Z,7.75
2022-11-10T16:31:16.317Z,8.57
2022-11-10T16:33:43.352Z,8.32
2022-11-10T16:36:17.043Z,8.65
2022-11-10T16:38:44.494Z,9.95
2022-11-10T16:41:16.566Z,12.98
2022-11-10T16:43:43.438Z,11.93
2022-11-10T16:46:21.706Z,11.40
2022-11-10T16:48:50.086Z,10.68
2022-11-10T16:51:18.112Z,13.43
2022-11-10T16:53:45.542Z,13.15
2022-11-10T16:56:16.993Z,11.85
2022-11-10T16:58:44.526Z,13.38
2022-11-10T17:01:19.627Z,12.75
2022-11-10T17:03:50.466Z,9.63
2022-11-10T17:06:18.881Z,9.95
2022-11-10T17:08:51.291Z,9.93
2022-11-10T17:11:18.731Z,12.18
2022-11-10T17:13:45.712Z,12.52
2022-11-10T17:16:29.457Z,12.10
2022-11-10T17:18:59.817Z,13.07
2022-11-10T17:21:32.910Z,13.48
2022-11-10T17:24:00.738Z,16.27
2022-11-10T17:26:28.667Z,15.90
2022-11-10T17:28:55.582Z,18.10
2022-11-10T17:31:22.603Z,13.93
2022-11-10T17:33:50.277Z,13.05
2022-11-10T17:36:22.756Z,12.13
2022-11-10T17:38:51.445Z,10.68
2022-11-10T17:41:19.890Z,11.35
2022-11-10T17:43:47.712Z,11.02
2022-11-10T17:46:15.355Z,12.20
2022-11-10T17:48:43.129Z,12.07
2022-11-10T17:51:18.056Z,12.85
2022-11-10T17:53:45.234Z,11.00
2022-11-10T17:56:12.920Z,12.80
2022-11-10T17:58:39.925Z,15.73
2022-11-10T18:01:18.688Z,14.88
2022-11-10T18:03:46.631Z,14.40
2022-11-10T18:06:19.738Z,16.15
2022-11-10T18:08:47.299Z,14.43
2022-11-10T18:11:17.525Z,12.38
2022-11-10T18:13:44.911Z,13.85
2022-11-10T18:16:16.379Z,13.77
2022-11-10T18:18:43.575Z,12.95
2022-11-10T18:21:10.660Z,12.60
2022-11-10T18:23:37.868Z,12.52
2022-11-10T18:26:07.121Z,12.43
2022-11-10T18:28:35.321Z,13.63
2022-11-10T18:31:10.361Z,14.00
2022-11-10T18:33:37.648Z,12.80
2022-11-10T18:36:04.878Z,12.80
2022-11-10T18:38:32.860Z,14.98
2022-11-10T18:41:25.379Z,13.98
2022-11-10T18:43:53.054Z,14.80
2022-11-10T18:46:19.947Z,15.23
2022-11-10T18:48:47.753Z,15.68
2022-11-10T18:51:16.600Z,15.23
2022-11-10T18:53:44.153Z,17.13
2022-11-10T18:56:11.258Z,17.58
2022-11-10T18:58:38.119Z,18.92
2022-11-10T19:01:07.203Z,18.05
2022-11-10T19:03:35.410Z,16.63
2022-11-10T19:06:03.533Z,18.08
2022-11-10T19:08:30.438Z,18.45
2022-11-10T19:10:57.730Z,16.88
2022-11-10T19:13:24.926Z,18.90
2022-11-10T19:15:52.338Z,15.73
2022-11-10T19:18:19.207Z,16.63
2022-11-10T19:20:46.318Z,18.63
2022-11-10T19:23:13.172Z,17.80
2022-11-10T19:25:40.349Z,18.52
2022-11-10T19:28:11.353Z,16.40
2022-11-10T19:30:39.392Z,15.82
2022-11-10T19:33:06.490Z,15.98
2022-11-10T19:35:33.690Z,17.25
2022-11-10T19:38:00.545Z,17.42
2022-11-10T19:40:28.043Z,18.20
2022-11-10T19:42:55.148Z,17.35
2022-11-10T19:45:22.353Z,15.48
2022-11-10T19:47:49.252Z,14.75
2022-11-10T19:50:18.673Z,13.98
2022-11-10T19:52:45.532Z,16.10
2022-11-10T19:55:12.681Z,15.02
2022-11-10T19:57:39.613Z,15.10
2022-11-10T20:00:07.570Z,15.13
2022-11-10T20:02:34.478Z,14.60
2022-11-10T20:05:13.505Z,16.33
2022-11-10T20:07:59.294Z,13.50
2022-11-10T20:10:26.635Z,14.38
2022-11-10T20:12:53.502Z,13.70
2022-11-10T20:15:20.661Z,13.40
2022-11-10T20:17:47.587Z,14.48
2022-11-10T20:20:15.482Z,13.38
2022-11-10T20:22:42.333Z,14.32
2022-11-10T20:25:09.892Z,14.48
2022-11-10T20:27:36.936Z,13.30
2022-11-10T20:30:05.157Z,14.23
2022-11-10T20:32:32.084Z,13.48
2022-11-10T20:35:00.588Z,13.20
2022-11-10T20:37:27.491Z,14.65
2022-11-10T20:39:54.606Z,14.52
2022-11-10T20:42:21.508Z,12.63
2022-11-10T20:44:48.747Z,13.60
2022-11-10T20:47:15.824Z,12.15
2022-11-10T20:49:43.186Z,12.77
2022-11-10T20:52:10.493Z,13.98
2022-11-10T20:54:39.909Z,12.90
2022-11-10T20:57:06.773Z,14.75
2022-11-10T20:59:33.955Z,15.70
2022-11-10T21:02:00.864Z,17.88
2022-11-10T21:04:28.102Z,15.32
2022-11-10T21:06:55.092Z,15.10
2022-11-10T21:09:22.409Z,15.00
2022-11-10T21:12:07.912Z,13.45
2022-11-10T21:14:35.301Z,14.27
2022-11-10T21:17:02.449Z,12.73
2022-11-10T21:19:33.669Z,12.98
2022-11-10T21:22:01.165Z,13.93
2022-11-10T21:24:29.230Z,12.88
2022-11-10T21:26:57.045Z,14.27
2022-11-10T21:29:24.272Z,14.27
2022-11-10T21:31:51.263Z,14.55
2022-11-10T21:34:18.667Z,15.45
2022-11-10T21:36:45.551Z,13.55
2022-11-10T21:39:12.926Z,12.93
2022-11-10T21:41:39.792Z,11.85
2022-11-10T21:44:07.172Z,12.77
2022-11-10T21:46:34.143Z,12.07
2022-11-10T21:49:06.162Z,13.00
2022-11-10T21:51:34.729Z,12.55
2022-11-10T21:54:01.535Z,13.07
2022-11-10T21:56:28.735Z,12.38
2022-11-10T21:58:55.593Z,15.25
2022-11-10T22:01:22.544Z,13.50
2022-11-10T22:03:50.068Z,11.88
2022-11-10T22:06:18.626Z,12.30
2022-11-10T22:08:47.171Z,13.25
2022-11-10T22:11:35.412Z,11.60
2022-11-10T22:14:20.923Z,11.52
2022-11-10T22:17:08.701Z,11.80
2022-11-10T22:19:36.965Z,11.43
2022-11-10T22:22:04.606Z,11.00
2022-11-10T22:24:31.894Z,12.63
2022-11-10T22:27:01.695Z,10.82
2022-11-10T22:29:33.487Z,10.63
2022-11-10T22:32:01.261Z,11.68
2022-11-10T22:34:28.378Z,10.68
2022-11-10T22:36:55.275Z,10.13
2022-11-10T22:39:22.572Z,11.80
2022-11-10T22:42:08.625Z,10.93
2022-11-10T22:44:36.484Z,11.73
2022-11-10T22:47:03.506Z,11.40
2022-11-10T22:49:30.356Z,10.07
2022-11-10T22:51:57.475Z,10.95
2022-11-10T22:54:24.776Z,11.68
2022-11-10T22:56:52.055Z,10.95
2022-11-10T22:59:19.509Z,11.20
2022-11-10T23:01:46.919Z,11.82
2022-11-10T23:04:16.031Z,11.60
2022-11-10T23:06:43.163Z,9.85
2022-11-10T23:09:10.458Z,11.93
2022-11-10T23:11:37.488Z,12.23
2022-11-10T23:14:04.589Z,11.73
2022-11-10T23:16:34.505Z,11.77
2022-11-10T23:19:02.360Z,12.07
2022-11-10T23:21:30.420Z,11.73
2022-11-10T23:23:58.292Z,12.25
2022-11-10T23:26:27.525Z,11.45
2022-11-10T23:28:54.758Z,11.40
2022-11-10T23:31:26.618Z,12.70
2022-11-10T23:33:55.743Z,12.88
2022-11-10T23:36:24.874Z,11.55
2022-11-10T23:38:52.292Z,13.13
2022-11-10T23:41:21.121Z,12.73
2022-11-10T23:43:48.563Z,13.07
2022-11-10T23:46:15.937Z,11.05
2022-11-10T23:48:43.272Z,12.20
2022-11-10T23:51:12.204Z,13.25
2022-11-10T23:53:39.711Z,10.88
2022-11-10T23:56:11.878Z,11.45
2022-11-10T23:58:39.069Z,11.18
